Terminal Aerodrome Forecast
Issued by NWS

Home | Current Version | Previous Version | Text Only | Print | Product List | Glossary On
Versions: 1 2 3 4 5 6 7 8 9 10 11 12 13 14 15 16 17 18 19 20 21 22
000
FTUS43 KAPX 111136
TAFPLN
TAF
KPLN 111136Z 1112/1212 VRB03KT P6SM OVC030
     FM111400 15005KT P6SM OVC030
     FM111500 16006KT 3SM -SN OVC025
     FM111800 16008KT 1SM -SN OVC015
     FM112300 19005KT 2SM -SHSN OVC020
     FM120000 25005KT 2SM -SHSN OVC015
     FM120200 31010G19KT 4SM -SHSN OVC025
     FM120600 33017G28KT P6SM OVC030=

USA.gov is the U.S. government's official web portal to all federal, state and local government web resources and services.